Detailed System and Site Information

System Data Health
Measure Timestamp Ago Health
Web Server Live 05:12:59, 25th October 2014 0 s health
Last live-data upload from local system (nw3) 05:12:57, 25th October 2014 2 s health
Last upload of secondary data 05:00:29, 25th October 2014 13 mins health
Latest Webcam upload 05:12:08, 25th October 2014 51 s health
Last upload of 24hr data log 05:09:08, 25th October 2014 4 mins health
Last full data process 05:10:02, 25th October 2014 3 mins health
Last data downtime (>15 mins) 04:01:02, 25th October 2014 72 mins
Local System and Site Information
Measure Value
WD Version & Build # 10.37R - 40
WD Start Time 12:54 01/10/14
WD Data Count 711193
WD Memory Use 68,900 K
--- ---
Windows Uptime 23 Days 16 Hours 8 Minutes 1 Seconds
Free System Memory 2504 MB (Max: 4GB)
--- ---
Station Altitude 57 m (187 ft)
Station Latitude 51.556
Station Longitude -0.154
Machine Room Conditions
Measure Value
Temperature 19.4 °C
Temperature Trend -0.1 °C /hr
Relative Humidity 57%
Dew Point 10.7 °C
--- ---
Tmin Today 19.4 °C at 04:27
Tmax Today 20.2 °C at 00:00
Hmin Today 54% at 00:07
Hmax Today 57% at 01:16
Tmin Yesterday 18.8 °C at 13:53
Tmax Yesterday 30.0 °C at 21:51

Site owner and administrator: Ben Lee-Rodgers (2010 - present)

Last 10hrs Temp/Hum for Secondary Sensor and Indoors

Extra Sensors/Indoor

Other

Raw METAR from EGLL (Heathrow)

EGLL 250350Z 26004KT 200V280 9999 FEW040 07/06 Q1017
Decode Instructions
Source

WD Screenshot

not available